sensor_id;sensor_type;location;lat;lon;timestamp;P1;durP1;ratioP1;P2;durP2;ratioP2
64857;SDS011;51335;51.148;6.950;2023-02-28T00:00:03;5.07;;;2.40;;
64857;SDS011;51335;51.148;6.950;2023-02-28T00:00:34;4.15;;;2.40;;
64857;SDS011;51335;51.148;6.950;2023-02-28T00:01:05;5.68;;;2.28;;
64857;SDS011;51335;51.148;6.950;2023-02-28T00:01:35;4.82;;;2.65;;
64857;SDS011;51335;51.148;6.950;2023-02-28T00:02:05;7.05;;;2.50;;
64857;SDS011;51335;51.148;6.950;2023-02-28T00:02:39;5.93;;;2.30;;
64857;SDS011;51335;51.148;6.950;2023-02-28T00:03:10;4.10;;;2.33;;
64857;SDS011;51335;51.148;6.950;2023-02-28T00:03:41;5.55;;;2.53;;
64857;SDS011;51335;51.148;6.950;2023-02-28T00:04:11;5.32;;;2.40;;
64857;SDS011;51335;51.148;6.950;2023-02-28T00:04:41;5.55;;;2.60;;
64857;SDS011;51335;51.148;6.950;2023-02-28T00:05:12;9.05;;;2.70;;
64857;SDS011;51335;51.148;6.950;2023-02-28T00:05:44;5.80;;;2.70;;
64857;SDS011;51335;51.148;6.950;2023-02-28T00:06:14;8.43;;;2.97;;
64857;SDS011;51335;51.148;6.950;2023-02-28T00:06:45;5.68;;;2.80;;
64857;SDS011;51335;51.148;6.950;2023-02-28T00:07:15;6.88;;;3.30;;
64857;SDS011;51335;51.148;6.950;2023-02-28T00:07:46;6.43;;;2.90;;
64857;SDS011;51335;51.148;6.950;2023-02-28T00:08:17;6.40;;;3.15;;
64857;SDS011;51335;51.148;6.950;2023-02-28T00:08:47;5.88;;;2.90;;
64857;SDS011;51335;51.148;6.950;2023-02-28T00:09:17;5.85;;;3.22;;
64857;SDS011;51335;51.148;6.950;2023-02-28T00:09:48;6.95;;;2.97;;
64857;SDS011;51335;51.148;6.950;2023-02-28T00:10:19;6.03;;;2.60;;
64857;SDS011;51335;51.148;6.950;2023-02-28T00:10:50;7.75;;;3.17;;
64857;SDS011;51335;51.148;6.950;2023-02-28T00:11:21;6.32;;;3.17;;
64857;SDS011;51335;51.148;6.950;2023-02-28T00:11:51;7.95;;;3.00;;
64857;SDS011;51335;51.148;6.950;2023-02-28T00:12:22;6.35;;;3.20;;
64857;SDS011;51335;51.148;6.950;2023-02-28T00:12:53;5.32;;;2.90;;
64857;SDS011;51335;51.148;6.950;2023-02-28T00:13:25;7.35;;;3.05;;
64857;SDS011;51335;51.148;6.950;2023-02-28T00:13:55;6.28;;;3.05;;
64857;SDS011;51335;51.148;6.950;2023-02-28T00:14:25;6.28;;;2.88;;
64857;SDS011;51335;51.148;6.950;2023-02-28T00:14:55;6.05;;;2.88;;
64857;SDS011;51335;51.148;6.950;2023-02-28T00:15:26;5.25;;;2.75;;
64857;SDS011;51335;51.148;6.950;2023-02-28T00:16:03;6.80;;;2.90;;
64857;SDS011;51335;51.148;6.950;2023-02-28T00:16:35;3.92;;;2.53;;
64857;SDS011;51335;51.148;6.950;2023-02-28T00:17:06;5.13;;;2.90;;
64857;SDS011;51335;51.148;6.950;2023-02-28T00:17:36;5.85;;;3.00;;
64857;SDS011;51335;51.148;6.950;2023-02-28T00:18:07;7.57;;;2.83;;
64857;SDS011;51335;51.148;6.950;2023-02-28T00:18:37;5.78;;;2.92;;
64857;SDS011;51335;51.148;6.950;2023-02-28T00:19:08;6.30;;;3.10;;
64857;SDS011;51335;51.148;6.950;2023-02-28T00:19:38;5.72;;;2.97;;
64857;SDS011;51335;51.148;6.950;2023-02-28T00:20:08;6.30;;;2.95;;
64857;SDS011;51335;51.148;6.950;2023-02-28T00:20:40;7.13;;;3.10;;
64857;SDS011;51335;51.148;6.950;2023-02-28T00:21:10;6.00;;;3.00;;
64857;SDS011;51335;51.148;6.950;2023-02-28T00:21:40;5.90;;;2.90;;
64857;SDS011;51335;51.148;6.950;2023-02-28T00:22:10;6.30;;;2.92;;
64857;SDS011;51335;51.148;6.950;2023-02-28T00:22:45;5.53;;;2.70;;
64857;SDS011;51335;51.148;6.950;2023-02-28T00:23:17;7.28;;;2.92;;
64857;SDS011;51335;51.148;6.950;2023-02-28T00:23:48;8.00;;;2.80;;
64857;SDS011;51335;51.148;6.950;2023-02-28T00:24:18;7.53;;;3.10;;
64857;SDS011;51335;51.148;6.950;2023-02-28T00:24:48;6.00;;;3.10;;
64857;SDS011;51335;51.148;6.950;2023-02-28T00:25:19;5.80;;;2.90;;
64857;SDS011;51335;51.148;6.950;2023-02-28T00:25:51;7.20;;;2.90;;
64857;SDS011;51335;51.148;6.950;2023-02-28T00:26:22;7.47;;;3.13;;
64857;SDS011;51335;51.148;6.950;2023-02-28T00:26:52;7.30;;;2.90;;
64857;SDS011;51335;51.148;6.950;2023-02-28T00:27:22;6.82;;;2.95;;
64857;SDS011;51335;51.148;6.950;2023-02-28T00:27:53;4.90;;;2.58;;
64857;SDS011;51335;51.148;6.950;2023-02-28T00:28:23;5.45;;;2.83;;
64857;SDS011;51335;51.148;6.950;2023-02-28T00:28:54;5.38;;;2.72;;
64857;SDS011;51335;51.148;6.950;2023-02-28T00:29:24;6.95;;;2.83;;
64857;SDS011;51335;51.148;6.950;2023-02-28T00:29:54;6.40;;;2.97;;
64857;SDS011;51335;51.148;6.950;2023-02-28T00:30:25;4.93;;;2.75;;
64857;SDS011;51335;51.148;6.950;2023-02-28T00:30:55;6.63;;;2.92;;
64857;SDS011;51335;51.148;6.950;2023-02-28T00:31:25;4.63;;;2.78;;
64857;SDS011;51335;51.148;6.950;2023-02-28T00:31:55;5.13;;;3.00;;
64857;SDS011;51335;51.148;6.950;2023-02-28T00:32:26;5.40;;;2.85;;
64857;SDS011;51335;51.148;6.950;2023-02-28T00:32:56;5.72;;;2.70;;
64857;SDS011;51335;51.148;6.950;2023-02-28T00:33:27;6.30;;;2.90;;
64857;SDS011;51335;51.148;6.950;2023-02-28T00:33:57;5.65;;;3.03;;
64857;SDS011;51335;51.148;6.950;2023-02-28T00:34:28;6.07;;;2.60;;
64857;SDS011;51335;51.148;6.950;2023-02-28T00:34:58;6.97;;;2.53;;
64857;SDS011;51335;51.148;6.950;2023-02-28T00:35:29;3.88;;;2.53;;
64857;SDS011;51335;51.148;6.950;2023-02-28T00:36:03;6.93;;;2.60;;
64857;SDS011;51335;51.148;6.950;2023-02-28T00:36:38;7.00;;;2.63;;
64857;SDS011;51335;51.148;6.950;2023-02-28T00:37:08;4.75;;;2.63;;
64857;SDS011;51335;51.148;6.950;2023-02-28T00:37:40;4.38;;;2.55;;
64857;SDS011;51335;51.148;6.950;2023-02-28T00:38:11;5.85;;;2.55;;
64857;SDS011;51335;51.148;6.950;2023-02-28T00:38:41;4.32;;;2.53;;
64857;SDS011;51335;51.148;6.950;2023-02-28T00:39:11;4.22;;;2.35;;
64857;SDS011;51335;51.148;6.950;2023-02-28T00:39:41;4.10;;;2.60;;
64857;SDS011;51335;51.148;6.950;2023-02-28T00:40:12;5.88;;;2.80;;
64857;SDS011;51335;51.148;6.950;2023-02-28T00:40:42;4.93;;;2.42;;
64857;SDS011;51335;51.148;6.950;2023-02-28T00:41:12;6.80;;;2.97;;
64857;SDS011;51335;51.148;6.950;2023-02-28T00:41:43;3.67;;;2.55;;
64857;SDS011;51335;51.148;6.950;2023-02-28T00:42:13;6.40;;;3.08;;
64857;SDS011;51335;51.148;6.950;2023-02-28T00:42:43;4.72;;;3.15;;
64857;SDS011;51335;51.148;6.950;2023-02-28T00:43:13;6.97;;;3.10;;
64857;SDS011;51335;51.148;6.950;2023-02-28T00:43:44;6.78;;;2.67;;
64857;SDS011;51335;51.148;6.950;2023-02-28T00:44:14;6.60;;;2.67;;
64857;SDS011;51335;51.148;6.950;2023-02-28T00:44:44;5.60;;;2.60;;
64857;SDS011;51335;51.148;6.950;2023-02-28T00:45:14;3.78;;;2.47;;
64857;SDS011;51335;51.148;6.950;2023-02-28T00:45:45;3.22;;;2.10;;
64857;SDS011;51335;51.148;6.950;2023-02-28T00:46:15;7.10;;;2.70;;
64857;SDS011;51335;51.148;6.950;2023-02-28T00:46:45;6.22;;;2.70;;
64857;SDS011;51335;51.148;6.950;2023-02-28T00:47:15;7.72;;;2.50;;
64857;SDS011;51335;51.148;6.950;2023-02-28T00:47:46;5.60;;;2.33;;
64857;SDS011;51335;51.148;6.950;2023-02-28T00:48:16;5.20;;;2.63;;
64857;SDS011;51335;51.148;6.950;2023-02-28T00:48:46;6.90;;;2.53;;
64857;SDS011;51335;51.148;6.950;2023-02-28T00:49:17;4.25;;;2.42;;
64857;SDS011;51335;51.148;6.950;2023-02-28T00:49:47;4.32;;;2.20;;
64857;SDS011;51335;51.148;6.950;2023-02-28T00:50:18;4.95;;;2.50;;
64857;SDS011;51335;51.148;6.950;2023-02-28T00:50:49;3.50;;;2.30;;
64857;SDS011;51335;51.148;6.950;2023-02-28T00:51:19;4.05;;;2.47;;
64857;SDS011;51335;51.148;6.950;2023-02-28T00:51:50;3.70;;;2.22;;
64857;SDS011;51335;51.148;6.950;2023-02-28T00:52:20;4.75;;;2.65;;
64857;SDS011;51335;51.148;6.950;2023-02-28T00:52:50;6.15;;;2.30;;
64857;SDS011;51335;51.148;6.950;2023-02-28T00:53:21;4.45;;;2.70;;
64857;SDS011;51335;51.148;6.950;2023-02-28T00:53:51;6.25;;;2.60;;
64857;SDS011;51335;51.148;6.950;2023-02-28T00:54:21;3.60;;;2.05;;
64857;SDS011;51335;51.148;6.950;2023-02-28T00:54:52;7.45;;;2.28;;
64857;SDS011;51335;51.148;6.950;2023-02-28T00:55:22;4.07;;;2.45;;
64857;SDS011;51335;51.148;6.950;2023-02-28T00:55:53;5.95;;;2.55;;
64857;SDS011;51335;51.148;6.950;2023-02-28T00:56:23;4.68;;;2.50;;
64857;SDS011;51335;51.148;6.950;2023-02-28T00:56:53;4.57;;;2.40;;
64857;SDS011;51335;51.148;6.950;2023-02-28T00:57:23;4.30;;;2.20;;
64857;SDS011;51335;51.148;6.950;2023-02-28T00:57:54;3.78;;;2.15;;
64857;SDS011;51335;51.148;6.950;2023-02-28T00:58:24;5.28;;;2.22;;
64857;SDS011;51335;51.148;6.950;2023-02-28T00:58:54;3.40;;;2.25;;
64857;SDS011;51335;51.148;6.950;2023-02-28T00:59:25;4.20;;;2.22;;
64857;SDS011;51335;51.148;6.950;2023-02-28T00:59:55;5.07;;;2.35;;
64857;SDS011;51335;51.148;6.950;2023-02-28T01:00:25;3.70;;;2.20;;
64857;SDS011;51335;51.148;6.950;2023-02-28T01:00:55;4.38;;;2.50;;
64857;SDS011;51335;51.148;6.950;2023-02-28T01:01:26;4.80;;;2.75;;
64857;SDS011;51335;51.148;6.950;2023-02-28T01:01:56;4.43;;;2.40;;
64857;SDS011;51335;51.148;6.950;2023-02-28T01:02:26;3.30;;;2.40;;
64857;SDS011;51335;51.148;6.950;2023-02-28T01:02:56;5.03;;;2.92;;
64857;SDS011;51335;51.148;6.950;2023-02-28T01:03:27;3.30;;;2.08;;
64857;SDS011;51335;51.148;6.950;2023-02-28T01:03:57;5.72;;;2.30;;
64857;SDS011;51335;51.148;6.950;2023-02-28T01:04:27;4.75;;;2.40;;
64857;SDS011;51335;51.148;6.950;2023-02-28T01:04:58;6.47;;;2.53;;
64857;SDS011;51335;51.148;6.950;2023-02-28T01:05:28;5.22;;;2.20;;
64857;SDS011;51335;51.148;6.950;2023-02-28T01:05:58;4.28;;;2.35;;
64857;SDS011;51335;51.148;6.950;2023-02-28T01:06:29;4.65;;;2.30;;
64857;SDS011;51335;51.148;6.950;2023-02-28T01:06:59;4.50;;;2.30;;
64857;SDS011;51335;51.148;6.950;2023-02-28T01:07:29;4.85;;;2.42;;
64857;SDS011;51335;51.148;6.950;2023-02-28T01:07:59;5.60;;;2.53;;
64857;SDS011;51335;51.148;6.950;2023-02-28T01:08:30;6.28;;;2.40;;
64857;SDS011;51335;51.148;6.950;2023-02-28T01:09:00;4.10;;;2.35;;
64857;SDS011;51335;51.148;6.950;2023-02-28T01:09:30;5.30;;;2.47;;
64857;SDS011;51335;51.148;6.950;2023-02-28T01:10:01;6.05;;;2.40;;
64857;SDS011;51335;51.148;6.950;2023-02-28T01:10:31;5.00;;;2.33;;
64857;SDS011;51335;51.148;6.950;2023-02-28T01:11:08;6.53;;;2.75;;
64857;SDS011;51335;51.148;6.950;2023-02-28T01:11:40;4.93;;;2.40;;
64857;SDS011;51335;51.148;6.950;2023-02-28T01:12:11;6.95;;;2.67;;
64857;SDS011;51335;51.148;6.950;2023-02-28T01:12:41;4.18;;;2.70;;
64857;SDS011;51335;51.148;6.950;2023-02-28T01:13:12;3.40;;;2.10;;
64857;SDS011;51335;51.148;6.950;2023-02-28T01:13:43;4.10;;;2.30;;
64857;SDS011;51335;51.148;6.950;2023-02-28T01:14:15;3.22;;;2.13;;
64857;SDS011;51335;51.148;6.950;2023-02-28T01:14:46;6.53;;;2.30;;
64857;SDS011;51335;51.148;6.950;2023-02-28T01:15:17;5.03;;;2.45;;
64857;SDS011;51335;51.148;6.950;2023-02-28T01:15:51;4.07;;;2.17;;
64857;SDS011;51335;51.148;6.950;2023-02-28T01:16:25;6.28;;;2.30;;
64857;SDS011;51335;51.148;6.950;2023-02-28T01:16:55;9.65;;;2.58;;
64857;SDS011;51335;51.148;6.950;2023-02-28T01:17:26;4.57;;;2.33;;
64857;SDS011;51335;51.148;6.950;2023-02-28T01:17:56;5.07;;;2.33;;
64857;SDS011;51335;51.148;6.950;2023-02-28T01:18:26;7.32;;;2.60;;
64857;SDS011;51335;51.148;6.950;2023-02-28T01:18:56;3.67;;;2.10;;
64857;SDS011;51335;51.148;6.950;2023-02-28T01:19:27;6.10;;;2.33;;
64857;SDS011;51335;51.148;6.950;2023-02-28T01:19:57;4.20;;;2.10;;
64857;SDS011;51335;51.148;6.950;2023-02-28T01:20:27;5.07;;;2.30;;
64857;SDS011;51335;51.148;6.950;2023-02-28T01:20:58;5.10;;;2.40;;
64857;SDS011;51335;51.148;6.950;2023-02-28T01:21:28;4.78;;;2.20;;
64857;SDS011;51335;51.148;6.950;2023-02-28T01:22:02;3.85;;;2.30;;
64857;SDS011;51335;51.148;6.950;2023-02-28T01:22:34;3.40;;;2.30;;
64857;SDS011;51335;51.148;6.950;2023-02-28T01:23:05;3.00;;;2.22;;
64857;SDS011;51335;51.148;6.950;2023-02-28T01:23:35;5.80;;;2.35;;
64857;SDS011;51335;51.148;6.950;2023-02-28T01:24:05;5.93;;;2.22;;
64857;SDS011;51335;51.148;6.950;2023-02-28T01:24:36;6.07;;;2.38;;
64857;SDS011;51335;51.148;6.950;2023-02-28T01:25:07;4.90;;;2.20;;
64857;SDS011;51335;51.148;6.950;2023-02-28T01:25:38;5.20;;;2.72;;
64857;SDS011;51335;51.148;6.950;2023-02-28T01:26:15;3.85;;;2.38;;
64857;SDS011;51335;51.148;6.950;2023-02-28T01:26:47;6.50;;;2.50;;
64857;SDS011;51335;51.148;6.950;2023-02-28T01:27:17;6.43;;;2.50;;
64857;SDS011;51335;51.148;6.950;2023-02-28T01:27:47;7.82;;;2.63;;
64857;SDS011;51335;51.148;6.950;2023-02-28T01:28:18;4.20;;;2.45;;
64857;SDS011;51335;51.148;6.950;2023-02-28T01:28:48;5.57;;;2.55;;
64857;SDS011;51335;51.148;6.950;2023-02-28T01:29:19;6.40;;;2.70;;
64857;SDS011;51335;51.148;6.950;2023-02-28T01:29:50;4.95;;;2.35;;
64857;SDS011;51335;51.148;6.950;2023-02-28T01:30:20;6.10;;;2.42;;
64857;SDS011;51335;51.148;6.950;2023-02-28T01:30:51;6.03;;;2.72;;
64857;SDS011;51335;51.148;6.950;2023-02-28T01:31:21;5.05;;;2.28;;
64857;SDS011;51335;51.148;6.950;2023-02-28T01:31:52;6.25;;;2.85;;
64857;SDS011;51335;51.148;6.950;2023-02-28T01:32:23;2.88;;;1.95;;
64857;SDS011;51335;51.148;6.950;2023-02-28T01:32:53;4.07;;;2.42;;
64857;SDS011;51335;51.148;6.950;2023-02-28T01:33:23;5.50;;;2.33;;
64857;SDS011;51335;51.148;6.950;2023-02-28T01:33:53;4.78;;;2.40;;
64857;SDS011;51335;51.148;6.950;2023-02-28T01:34:24;4.75;;;2.60;;
64857;SDS011;51335;51.148;6.950;2023-02-28T01:34:54;6.53;;;2.42;;
64857;SDS011;51335;51.148;6.950;2023-02-28T01:35:24;4.50;;;2.58;;
64857;SDS011;51335;51.148;6.950;2023-02-28T01:36:02;4.25;;;2.40;;
64857;SDS011;51335;51.148;6.950;2023-02-28T01:36:51;6.78;;;2.40;;
64857;SDS011;51335;51.148;6.950;2023-02-28T01:37:22;4.13;;;2.45;;
64857;SDS011;51335;51.148;6.950;2023-02-28T01:37:52;5.18;;;2.40;;
64857;SDS011;51335;51.148;6.950;2023-02-28T01:38:22;5.75;;;2.50;;
64857;SDS011;51335;51.148;6.950;2023-02-28T01:38:52;4.82;;;2.30;;
64857;SDS011;51335;51.148;6.950;2023-02-28T01:39:23;5.78;;;2.70;;
64857;SDS011;51335;51.148;6.950;2023-02-28T01:39:53;6.63;;;2.40;;
64857;SDS011;51335;51.148;6.950;2023-02-28T01:40:23;5.72;;;2.42;;
64857;SDS011;51335;51.148;6.950;2023-02-28T01:40:54;5.60;;;2.80;;
64857;SDS011;51335;51.148;6.950;2023-02-28T01:41:26;3.40;;;2.30;;
64857;SDS011;51335;51.148;6.950;2023-02-28T01:41:58;4.63;;;2.50;;
64857;SDS011;51335;51.148;6.950;2023-02-28T01:42:28;3.90;;;2.35;;
64857;SDS011;51335;51.148;6.950;2023-02-28T01:42:59;5.15;;;2.65;;
64857;SDS011;51335;51.148;6.950;2023-02-28T01:43:30;5.95;;;2.70;;
64857;SDS011;51335;51.148;6.950;2023-02-28T01:45:40;3.70;;;2.17;;
64857;SDS011;51335;51.148;6.950;2023-02-28T01:46:11;6.15;;;2.53;;
64857;SDS011;51335;51.148;6.950;2023-02-28T01:46:42;11.65;;;2.88;;
64857;SDS011;51335;51.148;6.950;2023-02-28T01:47:12;5.57;;;2.50;;
64857;SDS011;51335;51.148;6.950;2023-02-28T01:47:43;5.55;;;2.60;;
64857;SDS011;51335;51.148;6.950;2023-02-28T01:48:17;4.47;;;2.22;;
64857;SDS011;51335;51.148;6.950;2023-02-28T01:48:53;5.22;;;2.63;;
64857;SDS011;51335;51.148;6.950;2023-02-28T01:49:31;4.47;;;2.55;;
64857;SDS011;51335;51.148;6.950;2023-02-28T01:50:03;5.38;;;2.88;;
64857;SDS011;51335;51.148;6.950;2023-02-28T01:50:38;4.88;;;2.58;;
64857;SDS011;51335;51.148;6.950;2023-02-28T01:51:12;4.93;;;2.97;;
64857;SDS011;51335;51.148;6.950;2023-02-28T01:51:46;4.32;;;2.30;;
64857;SDS011;51335;51.148;6.950;2023-02-28T01:52:19;3.92;;;2.47;;
64857;SDS011;51335;51.148;6.950;2023-02-28T01:52:50;5.25;;;2.60;;
64857;SDS011;51335;51.148;6.950;2023-02-28T01:53:24;6.07;;;2.50;;
64857;SDS011;51335;51.148;6.950;2023-02-28T01:54:05;3.83;;;2.22;;
64857;SDS011;51335;51.148;6.950;2023-02-28T01:54:40;4.90;;;2.50;;
64857;SDS011;51335;51.148;6.950;2023-02-28T01:55:11;6.10;;;2.65;;
64857;SDS011;51335;51.148;6.950;2023-02-28T01:55:42;6.18;;;2.72;;
64857;SDS011;51335;51.148;6.950;2023-02-28T01:56:17;7.47;;;2.78;;
64857;SDS011;51335;51.148;6.950;2023-02-28T01:56:53;8.50;;;2.83;;
64857;SDS011;51335;51.148;6.950;2023-02-28T01:57:35;7.88;;;3.20;;
64857;SDS011;51335;51.148;6.950;2023-02-28T01:58:09;4.50;;;2.72;;
64857;SDS011;51335;51.148;6.950;2023-02-28T01:58:40;4.65;;;2.55;;
64857;SDS011;51335;51.148;6.950;2023-02-28T01:59:12;5.55;;;2.83;;
64857;SDS011;51335;51.148;6.950;2023-02-28T02:00:20;5.85;;;2.47;;
64857;SDS011;51335;51.148;6.950;2023-02-28T02:00:52;5.22;;;2.80;;
64857;SDS011;51335;51.148;6.950;2023-02-28T02:01:24;8.25;;;3.10;;
64857;SDS011;51335;51.148;6.950;2023-02-28T02:01:57;5.20;;;3.03;;
64857;SDS011;51335;51.148;6.950;2023-02-28T02:02:28;7.80;;;2.80;;
64857;SDS011;51335;51.148;6.950;2023-02-28T02:02:59;4.95;;;2.80;;
64857;SDS011;51335;51.148;6.950;2023-02-28T02:03:36;4.47;;;2.80;;
64857;SDS011;51335;51.148;6.950;2023-02-28T02:04:06;10.15;;;2.95;;
64857;SDS011;51335;51.148;6.950;2023-02-28T02:04:37;4.03;;;2.70;;
64857;SDS011;51335;51.148;6.950;2023-02-28T02:05:14;8.00;;;2.70;;
64857;SDS011;51335;51.148;6.950;2023-02-28T02:05:46;5.43;;;2.72;;
64857;SDS011;51335;51.148;6.950;2023-02-28T02:06:17;5.53;;;2.75;;
64857;SDS011;51335;51.148;6.950;2023-02-28T02:06:47;7.85;;;3.10;;
64857;SDS011;51335;51.148;6.950;2023-02-28T02:07:18;8.65;;;3.00;;
64857;SDS011;51335;51.148;6.950;2023-02-28T02:07:54;5.07;;;2.70;;
64857;SDS011;51335;51.148;6.950;2023-02-28T02:08:26;6.20;;;2.88;;
64857;SDS011;51335;51.148;6.950;2023-02-28T02:08:58;6.10;;;2.83;;
64857;SDS011;51335;51.148;6.950;2023-02-28T02:09:29;4.63;;;2.60;;
64857;SDS011;51335;51.148;6.950;2023-02-28T02:10:00;5.95;;;2.63;;
64857;SDS011;51335;51.148;6.950;2023-02-28T02:10:52;5.45;;;2.60;;
64857;SDS011;51335;51.148;6.950;2023-02-28T02:11:25;5.75;;;2.72;;
64857;SDS011;51335;51.148;6.950;2023-02-28T02:11:56;7.45;;;2.58;;
64857;SDS011;51335;51.148;6.950;2023-02-28T02:13:13;5.05;;;2.72;;
64857;SDS011;51335;51.148;6.950;2023-02-28T02:15:06;5.13;;;2.63;;
64857;SDS011;51335;51.148;6.950;2023-02-28T02:15:46;5.70;;;2.88;;
64857;SDS011;51335;51.148;6.950;2023-02-28T02:16:57;4.40;;;2.72;;
64857;SDS011;51335;51.148;6.950;2023-02-28T02:17:51;5.80;;;2.40;;
64857;SDS011;51335;51.148;6.950;2023-02-28T02:19:22;4.60;;;2.53;;
64857;SDS011;51335;51.148;6.950;2023-02-28T02:23:17;4.18;;;2.60;;
64857;SDS011;51335;51.148;6.950;2023-02-28T02:23:33;4.97;;;2.42;;
64857;SDS011;51335;51.148;6.950;2023-02-28T02:24:16;4.38;;;2.42;;
64857;SDS011;51335;51.148;6.950;2023-02-28T02:32:57;5.55;;;2.67;;
64857;SDS011;51335;51.148;6.950;2023-02-28T02:34:45;4.97;;;2.63;;
64857;SDS011;51335;51.148;6.950;2023-02-28T02:35:26;7.45;;;2.63;;
64857;SDS011;51335;51.148;6.950;2023-02-28T02:36:42;4.93;;;2.65;;
64857;SDS011;51335;51.148;6.950;2023-02-28T02:38:13;5.50;;;2.35;;
64857;SDS011;51335;51.148;6.950;2023-02-28T02:42:55;7.50;;;2.88;;
64857;SDS011;51335;51.148;6.950;2023-02-28T02:43:22;6.18;;;2.90;;
64857;SDS011;51335;51.148;6.950;2023-02-28T02:44:40;5.22;;;2.72;;
64857;SDS011;51335;51.148;6.950;2023-02-28T02:46:14;7.00;;;2.97;;
64857;SDS011;51335;51.148;6.950;2023-02-28T02:46:50;5.13;;;2.92;;
64857;SDS011;51335;51.148;6.950;2023-02-28T02:47:26;4.07;;;2.63;;
64857;SDS011;51335;51.148;6.950;2023-02-28T02:47:59;5.43;;;2.97;;
64857;SDS011;51335;51.148;6.950;2023-02-28T02:48:30;6.82;;;3.25;;
64857;SDS011;51335;51.148;6.950;2023-02-28T02:49:05;7.25;;;3.28;;
64857;SDS011;51335;51.148;6.950;2023-02-28T02:49:38;4.38;;;3.08;;
64857;SDS011;51335;51.148;6.950;2023-02-28T02:50:13;5.57;;;3.15;;
64857;SDS011;51335;51.148;6.950;2023-02-28T02:50:50;4.95;;;2.78;;
64857;SDS011;51335;51.148;6.950;2023-02-28T02:51:24;7.22;;;3.03;;
64857;SDS011;51335;51.148;6.950;2023-02-28T02:51:55;5.28;;;3.05;;
64857;SDS011;51335;51.148;6.950;2023-02-28T02:52:32;9.15;;;3.40;;
64857;SDS011;51335;51.148;6.950;2023-02-28T02:53:08;7.55;;;3.40;;
64857;SDS011;51335;51.148;6.950;2023-02-28T02:53:42;7.45;;;3.15;;
64857;SDS011;51335;51.148;6.950;2023-02-28T02:54:18;6.80;;;4.18;;
64857;SDS011;51335;51.148;6.950;2023-02-28T02:54:52;5.47;;;3.22;;
64857;SDS011;51335;51.148;6.950;2023-02-28T02:55:26;6.88;;;3.38;;
64857;SDS011;51335;51.148;6.950;2023-02-28T02:55:57;7.07;;;3.30;;
64857;SDS011;51335;51.148;6.950;2023-02-28T02:56:31;4.93;;;3.30;;
64857;SDS011;51335;51.148;6.950;2023-02-28T02:57:08;5.70;;;3.10;;
64857;SDS011;51335;51.148;6.950;2023-02-28T02:57:52;15.57;;;3.33;;
64857;SDS011;51335;51.148;6.950;2023-02-28T02:58:26;4.68;;;3.00;;
64857;SDS011;51335;51.148;6.950;2023-02-28T02:59:02;5.45;;;3.20;;
64857;SDS011;51335;51.148;6.950;2023-02-28T02:59:37;9.20;;;3.70;;
64857;SDS011;51335;51.148;6.950;2023-02-28T03:00:09;7.03;;;3.22;;
64857;SDS011;51335;51.148;6.950;2023-02-28T03:00:45;6.03;;;3.08;;
64857;SDS011;51335;51.148;6.950;2023-02-28T03:01:21;5.97;;;3.10;;
64857;SDS011;51335;51.148;6.950;2023-02-28T03:01:55;6.15;;;3.13;;
64857;SDS011;51335;51.148;6.950;2023-02-28T03:02:29;5.57;;;2.92;;
64857;SDS011;51335;51.148;6.950;2023-02-28T03:03:00;5.93;;;3.35;;
64857;SDS011;51335;51.148;6.950;2023-02-28T03:03:31;8.80;;;3.30;;
64857;SDS011;51335;51.148;6.950;2023-02-28T03:04:04;8.93;;;4.25;;
64857;SDS011;51335;51.148;6.950;2023-02-28T03:04:50;7.05;;;3.30;;
64857;SDS011;51335;51.148;6.950;2023-02-28T03:05:26;5.15;;;3.05;;
64857;SDS011;51335;51.148;6.950;2023-02-28T03:06:08;6.47;;;2.95;;
64857;SDS011;51335;51.148;6.950;2023-02-28T03:06:38;4.28;;;2.53;;
64857;SDS011;51335;51.148;6.950;2023-02-28T03:07:09;7.55;;;2.80;;
64857;SDS011;51335;51.148;6.950;2023-02-28T03:07:39;4.82;;;2.78;;
64857;SDS011;51335;51.148;6.950;2023-02-28T03:08:09;6.32;;;2.95;;
64857;SDS011;51335;51.148;6.950;2023-02-28T03:08:40;5.85;;;3.13;;
64857;SDS011;51335;51.148;6.950;2023-02-28T03:09:10;6.72;;;3.20;;
64857;SDS011;51335;51.148;6.950;2023-02-28T03:09:40;4.80;;;3.40;;
64857;SDS011;51335;51.148;6.950;2023-02-28T03:11:19;4.68;;;2.65;;
64857;SDS011;51335;51.148;6.950;2023-02-28T03:11:50;4.57;;;2.95;;
64857;SDS011;51335;51.148;6.950;2023-02-28T03:12:28;5.05;;;3.10;;
64857;SDS011;51335;51.148;6.950;2023-02-28T03:13:25;6.32;;;3.60;;
64857;SDS011;51335;51.148;6.950;2023-02-28T03:14:22;5.43;;;2.95;;
64857;SDS011;51335;51.148;6.950;2023-02-28T03:15:16;7.78;;;3.42;;
64857;SDS011;51335;51.148;6.950;2023-02-28T03:18:10;5.50;;;2.88;;
64857;SDS011;51335;51.148;6.950;2023-02-28T03:20:50;4.43;;;2.80;;
64857;SDS011;51335;51.148;6.950;2023-02-28T03:21:34;7.88;;;3.38;;
64857;SDS011;51335;51.148;6.950;2023-02-28T03:24:03;6.28;;;3.50;;
64857;SDS011;51335;51.148;6.950;2023-02-28T03:24:55;7.07;;;3.20;;
64857;SDS011;51335;51.148;6.950;2023-02-28T03:25:29;7.30;;;3.42;;
64857;SDS011;51335;51.148;6.950;2023-02-28T03:26:12;10.38;;;4.10;;
64857;SDS011;51335;51.148;6.950;2023-02-28T03:26:50;9.20;;;3.83;;
64857;SDS011;51335;51.148;6.950;2023-02-28T03:27:28;5.93;;;3.78;;
64857;SDS011;51335;51.148;6.950;2023-02-28T03:28:17;5.63;;;3.67;;
64857;SDS011;51335;51.148;6.950;2023-02-28T03:29:05;8.43;;;4.07;;
64857;SDS011;51335;51.148;6.950;2023-02-28T03:29:44;7.90;;;4.00;;
64857;SDS011;51335;51.148;6.950;2023-02-28T03:30:26;7.95;;;3.88;;
64857;SDS011;51335;51.148;6.950;2023-02-28T03:31:48;7.35;;;4.00;;
64857;SDS011;51335;51.148;6.950;2023-02-28T03:31:58;7.75;;;3.85;;
64857;SDS011;51335;51.148;6.950;2023-02-28T03:32:35;6.93;;;3.80;;
64857;SDS011;51335;51.148;6.950;2023-02-28T03:34:38;6.53;;;3.80;;
64857;SDS011;51335;51.148;6.950;2023-02-28T03:35:20;6.70;;;3.97;;
64857;SDS011;51335;51.148;6.950;2023-02-28T03:35:59;6.40;;;4.22;;
64857;SDS011;51335;51.148;6.950;2023-02-28T03:36:38;6.55;;;3.72;;
64857;SDS011;51335;51.148;6.950;2023-02-28T03:37:14;8.15;;;4.20;;
64857;SDS011;51335;51.148;6.950;2023-02-28T03:37:50;9.48;;;4.10;;
64857;SDS011;51335;51.148;6.950;2023-02-28T03:38:31;10.02;;;4.03;;
64857;SDS011;51335;51.148;6.950;2023-02-28T03:39:06;6.60;;;4.20;;
64857;SDS011;51335;51.148;6.950;2023-02-28T03:39:49;7.25;;;4.65;;
64857;SDS011;51335;51.148;6.950;2023-02-28T03:40:41;7.50;;;4.00;;
64857;SDS011;51335;51.148;6.950;2023-02-28T03:41:21;5.82;;;4.05;;
64857;SDS011;51335;51.148;6.950;2023-02-28T03:41:59;6.22;;;3.90;;
64857;SDS011;51335;51.148;6.950;2023-02-28T03:42:33;8.93;;;4.72;;
64857;SDS011;51335;51.148;6.950;2023-02-28T03:43:08;9.00;;;4.25;;
64857;SDS011;51335;51.148;6.950;2023-02-28T03:43:43;7.40;;;3.90;;
64857;SDS011;51335;51.148;6.950;2023-02-28T03:44:24;8.05;;;4.57;;
64857;SDS011;51335;51.148;6.950;2023-02-28T03:44:57;7.38;;;4.00;;
64857;SDS011;51335;51.148;6.950;2023-02-28T03:45:49;9.77;;;4.28;;
64857;SDS011;51335;51.148;6.950;2023-02-28T03:46:23;8.18;;;4.35;;
64857;SDS011;51335;51.148;6.950;2023-02-28T03:47:31;9.77;;;4.57;;
64857;SDS011;51335;51.148;6.950;2023-02-28T03:48:23;6.93;;;4.03;;
64857;SDS011;51335;51.148;6.950;2023-02-28T03:49:36;8.25;;;4.00;;
64857;SDS011;51335;51.148;6.950;2023-02-28T03:50:23;7.68;;;3.95;;
64857;SDS011;51335;51.148;6.950;2023-02-28T03:50:56;11.27;;;4.20;;
64857;SDS011;51335;51.148;6.950;2023-02-28T03:51:28;7.97;;;4.30;;
64857;SDS011;51335;51.148;6.950;2023-02-28T03:52:00;9.25;;;4.35;;
64857;SDS011;51335;51.148;6.950;2023-02-28T03:52:33;12.45;;;4.60;;
64857;SDS011;51335;51.148;6.950;2023-02-28T03:53:07;6.57;;;4.00;;
64857;SDS011;51335;51.148;6.950;2023-02-28T03:53:53;7.65;;;3.85;;
64857;SDS011;51335;51.148;6.950;2023-02-28T03:54:28;7.65;;;3.90;;
64857;SDS011;51335;51.148;6.950;2023-02-28T03:55:04;8.85;;;4.45;;
64857;SDS011;51335;51.148;6.950;2023-02-28T03:55:39;9.82;;;4.32;;